Time;durP1;ratioP1;P1;durP2;ratioP2;P2;SDS_P1;SDS_P2;PMS_P1;PMS_P2;Temp;Humidity;BMP_temperature;BMP_pressure;BME280_temperature;BME280_humidity;BME280_pressure;Samples;Min_cycle;Max_cycle;Signal;HPM_P1;HPM_P2
2023/08/22 00:01:56;;;;;;;3.83;1.73;;;;;;;18.35;100.00;101897.03;5070144;28;20594;-71
2023/08/22 00:04:22;;;;;;;4.20;2.10;;;;;;;17.96;100.00;101837.44;5065621;28;20625;-71
2023/08/22 00:06:47;;;;;;;4.13;1.90;;;;;;;18.32;100.00;101883.91;5068184;28;20179;-71
2023/08/22 00:09:13;;;;;;;3.27;1.70;;;;;;;18.32;100.00;101919.19;5065679;28;20175;-71
2023/08/22 00:11:38;;;;;;;3.20;1.63;;;;;;;18.12;100.00;101857.75;5067306;28;20179;-70
2023/08/22 00:14:04;;;;;;;5.13;2.07;;;;;;;18.23;100.00;101889.59;5069031;28;20268;-71
2023/08/22 00:16:29;;;;;;;4.10;1.70;;;;;;;18.14;100.00;101884.66;5067747;28;20201;-71
2023/08/22 00:18:55;;;;;;;5.90;1.87;;;;;;;18.30;100.00;101901.22;5069272;28;20449;-71
2023/08/22 00:21:21;;;;;;;3.97;1.90;;;;;;;18.37;100.00;101884.88;5067556;28;20186;-71
2023/08/22 00:23:46;;;;;;;5.40;1.80;;;;;;;18.43;100.00;101891.31;5078368;28;20198;-71
2023/08/22 00:26:12;;;;;;;4.00;2.03;;;;;;;18.47;100.00;101882.44;5065889;28;20209;-71
2023/08/22 00:28:37;;;;;;;6.43;2.00;;;;;;;18.47;100.00;101881.63;5066008;28;20240;-71
2023/08/22 00:31:02;;;;;;;3.73;1.83;;;;;;;18.45;100.00;101870.97;5063820;28;20266;-71
2023/08/22 00:33:28;;;;;;;3.60;1.87;;;;;;;18.45;100.00;101826.69;5067696;28;20214;-71
2023/08/22 00:35:53;;;;;;;4.47;1.83;;;;;;;18.52;100.00;101855.44;5066067;28;20187;-71
2023/08/22 00:38:19;;;;;;;3.33;1.90;;;;;;;18.37;100.00;101838.72;5066821;28;20892;-71
2023/08/22 00:40:44;;;;;;;5.23;1.77;;;;;;;18.01;100.00;101793.34;5069866;28;20175;-71
2023/08/22 00:43:10;;;;;;;3.37;1.80;;;;;;;17.93;100.00;101733.91;5068087;28;20817;-71
2023/08/22 00:45:36;;;;;;;4.10;1.83;;;;;;;18.37;100.00;101810.69;5068902;28;20286;-71
2023/08/22 00:48:02;;;;;;;3.70;2.10;;;;;;;18.23;100.00;101805.44;5068200;28;20516;-71
2023/08/22 00:50:28;;;;;;;3.40;2.03;;;;;;;18.61;100.00;101836.94;5064999;28;20187;-71
2023/08/22 00:52:54;;;;;;;3.90;1.77;;;;;;;18.48;100.00;101839.81;5066545;28;20213;-71
2023/08/22 00:55:19;;;;;;;3.10;1.80;;;;;;;18.36;100.00;101845.19;5066743;28;20428;-71
2023/08/22 00:57:45;;;;;;;6.40;2.33;;;;;;;17.99;100.00;101777.31;5065439;28;20730;-71
2023/08/22 01:00:11;;;;;;;3.87;2.43;;;;;;;18.40;100.00;101843.69;5064856;28;20200;-71
2023/08/22 01:02:39;;;;;;;3.50;1.90;;;;;;;18.46;100.00;101834.63;5068263;28;20195;-71
2023/08/22 01:05:06;;;;;;;3.50;1.90;;;;;;;18.55;100.00;101843.28;5068766;28;20202;-71
2023/08/22 01:07:41;;;;;;;5.40;2.53;;;;;;;18.56;100.00;101849.56;5062026;28;20811;-71
2023/08/22 01:10:12;;;;;;;6.03;1.90;;;;;;;18.45;100.00;101851.13;5066423;28;20964;-70
2023/08/22 01:13:03;;;;;;;6.40;2.33;;;;;;;18.43;100.00;101875.81;5065457;28;20460;-71
2023/08/22 01:15:30;;;;;;;3.00;1.80;;;;;;;18.39;100.00;101868.34;5078954;28;20949;-71
2023/08/22 01:17:57;;;;;;;3.63;1.60;;;;;;;17.96;100.00;101809.47;5065331;28;20461;-71
2023/08/22 01:20:25;;;;;;;4.47;1.97;;;;;;;18.18;100.00;101843.28;5069400;28;20455;-71
2023/08/22 01:22:50;;;;;;;6.57;1.60;;;;;;;18.34;100.00;101851.88;5067338;28;20441;-71
2023/08/22 01:25:16;;;;;;;3.07;1.87;;;;;;;18.11;100.00;101833.53;5066796;28;20438;-71
2023/08/22 01:27:58;;;;;;;5.17;1.80;;;;;;;18.26;100.00;101858.47;5067202;28;20179;-71
2023/08/22 01:30:35;;;;;;;3.60;1.53;;;;;;;18.15;100.00;101849.16;5065671;28;20920;-70
2023/08/22 01:33:11;;;;;;;4.20;1.90;;;;;;;18.13;100.00;101873.00;5066999;28;21260;-71
2023/08/22 01:35:39;;;;;;;5.27;1.90;;;;;;;18.43;100.00;101850.56;5067395;28;20863;-71
2023/08/22 01:38:06;;;;;;;3.13;1.50;;;;;;;18.41;100.00;101885.25;5068398;28;20468;-71
2023/08/22 01:40:33;;;;;;;5.43;1.73;;;;;;;18.16;100.00;101810.09;5071287;28;20953;-71
2023/08/22 01:42:59;;;;;;;3.53;1.63;;;;;;;18.28;100.00;101849.03;5065160;28;20539;-71
2023/08/22 01:45:24;;;;;;;4.20;1.90;;;;;;;18.40;100.00;101867.28;5065865;28;20429;-71
2023/08/22 01:47:49;;;;;;;5.30;1.80;;;;;;;18.05;100.00;101829.84;5067352;28;20493;-71
2023/08/22 01:50:15;;;;;;;3.53;1.60;;;;;;;18.32;100.00;101857.56;5065135;28;20557;-71
2023/08/22 01:52:41;;;;;;;3.23;1.70;;;;;;;18.29;100.00;101860.72;5063651;28;20583;-71
2023/08/22 01:55:07;;;;;;;2.57;1.67;;;;;;;18.27;100.00;101863.66;5064158;28;20432;-71
2023/08/22 01:57:32;;;;;;;4.83;1.70;;;;;;;18.04;100.00;101820.03;5069021;28;20190;-71
2023/08/22 01:59:58;;;;;;;3.20;1.50;;;;;;;18.33;100.00;101842.91;5063354;28;20183;-70
2023/08/22 02:02:24;;;;;;;4.40;1.30;;;;;;;18.51;100.00;101850.22;5066058;28;20206;-71
2023/08/22 02:04:49;;;;;;;3.23;1.90;;;;;;;18.37;100.00;101841.41;5066643;28;20217;-71
2023/08/22 02:07:15;;;;;;;3.60;1.60;;;;;;;18.37;100.00;101836.00;5062897;28;20190;-71
2023/08/22 02:09:41;;;;;;;4.40;2.00;;;;;;;18.33;100.00;101834.75;5067718;28;20653;-71
2023/08/22 02:12:06;;;;;;;4.60;1.73;;;;;;;18.32;100.00;101819.53;5072624;28;20452;-71
2023/08/22 02:14:32;;;;;;;2.80;1.50;;;;;;;18.01;100.00;101788.75;5081803;28;20248;-71
2023/08/22 02:16:57;;;;;;;4.00;1.97;;;;;;;17.97;100.00;101790.25;5070903;28;20290;-71
2023/08/22 02:19:23;;;;;;;3.60;1.93;;;;;;;17.77;100.00;101740.75;5090081;22;20242;-79
2023/08/22 02:21:48;;;;;;;4.33;1.30;;;;;;;16.16;100.00;101544.47;5053099;28;20195;-79
2023/08/22 02:24:14;;;;;;;4.47;1.80;;;;;;;17.26;100.00;101612.53;5050106;28;20215;-79
2023/08/22 02:26:42;;;;;;;3.33;1.60;;;;;;;15.67;100.00;101403.47;5051645;28;20186;-80
2023/08/22 02:29:08;;;;;;;3.93;2.10;;;;;;;18.11;100.00;101776.53;5050357;28;20207;-80
2023/08/22 02:31:34;;;;;;;5.20;1.97;;;;;;;15.65;100.00;101438.03;5049675;28;20438;-80
2023/08/22 02:33:59;;;;;;;5.77;1.90;;;;;;;15.93;100.00;101499.88;5046789;28;20434;-79
2023/08/22 02:36:25;;;;;;;4.70;2.07;;;;;;;16.48;100.00;101551.50;5049600;28;20684;-80
2023/08/22 02:38:50;;;;;;;3.90;2.13;;;;;;;17.87;100.00;101802.69;5049075;28;20200;-80
2023/08/22 02:41:16;;;;;;;3.40;2.00;;;;;;;17.71;100.00;101761.47;5049512;28;20671;-80
2023/08/22 02:43:41;;;;;;;3.33;1.80;;;;;;;17.06;100.00;101652.56;5051740;28;20707;-80
2023/08/22 02:46:07;;;;;;;3.77;1.60;;;;;;;16.76;100.00;101574.66;5049711;28;20721;-80
2023/08/22 02:48:32;;;;;;;5.47;2.10;;;;;;;16.54;100.00;101570.63;5048121;28;20187;-80
2023/08/22 02:50:58;;;;;;;2.83;1.73;;;;;;;16.61;100.00;101557.91;5049762;28;20195;-81
2023/08/22 02:53:23;;;;;;;2.90;1.70;;;;;;;17.80;100.00;101749.31;5048462;28;20222;-80
2023/08/22 02:55:49;;;;;;;4.43;2.03;;;;;;;15.41;100.00;101334.19;5051804;28;20322;-81
2023/08/22 02:58:14;;;;;;;3.10;1.80;;;;;;;16.04;100.00;101471.28;5048064;28;20359;-81
2023/08/22 03:00:40;;;;;;;5.37;1.87;;;;;;;18.10;100.00;101808.28;5048684;28;20277;-80
2023/08/22 03:03:05;;;;;;;4.27;2.00;;;;;;;15.89;100.00;101535.72;5049427;28;20194;-79
2023/08/22 03:05:31;;;;;;;3.90;1.87;;;;;;;15.48;100.00;101380.13;5049051;28;20192;-80
2023/08/22 03:07:56;;;;;;;3.20;1.30;;;;;;;15.37;100.00;101390.56;5051264;28;20179;-81
2023/08/22 03:10:22;;;;;;;4.50;1.80;;;;;;;18.15;100.00;101824.72;5050601;28;20695;-80
2023/08/22 03:12:49;;;;;;;3.27;1.43;;;;;;;16.08;100.00;101491.44;5046977;28;20188;-80
2023/08/22 03:15:14;;;;;;;2.90;1.63;;;;;;;17.94;100.00;101760.03;5055034;28;20205;-80
2023/08/22 03:17:40;;;;;;;3.53;1.50;;;;;;;15.20;100.00;101423.72;5059308;28;20790;-79
2023/08/22 03:20:06;;;;;;;2.70;1.50;;;;;;;18.01;100.00;101806.91;5052621;28;20708;-80
2023/08/22 03:22:32;;;;;;;3.03;1.60;;;;;;;17.78;100.00;101756.81;5051305;28;20249;-79
2023/08/22 03:24:57;;;;;;;3.60;1.73;;;;;;;17.63;100.00;101735.44;5053092;28;20914;-80
2023/08/22 03:27:22;;;;;;;4.53;1.63;;;;;;;17.29;100.00;101704.25;5051524;28;20179;-80
2023/08/22 03:29:48;;;;;;;4.37;1.80;;;;;;;17.93;100.00;101808.03;5051212;28;20204;-80
2023/08/22 03:32:13;;;;;;;2.80;1.50;;;;;;;16.86;100.00;101610.19;5052885;28;20555;-80
2023/08/22 03:34:39;;;;;;;3.23;1.60;;;;;;;17.99;100.00;101809.03;5052695;28;20214;-80
2023/08/22 03:37:04;;;;;;;3.23;1.43;;;;;;;17.42;100.00;101740.47;5053547;28;20203;-79
2023/08/22 03:39:30;;;;;;;3.67;1.70;;;;;;;17.98;100.00;101808.19;5057647;28;20366;-80
2023/08/22 03:41:55;;;;;;;2.77;1.20;;;;;;;17.18;100.00;101677.88;5062126;28;20199;-80
2023/08/22 03:44:21;;;;;;;6.00;1.67;;;;;;;17.68;100.00;101747.53;5053536;28;20191;-79
2023/08/22 03:46:47;;;;;;;3.73;1.53;;;;;;;17.93;100.00;101793.63;5050216;28;20184;-80
2023/08/22 03:49:14;;;;;;;4.10;1.80;;;;;;;17.85;100.00;101800.19;5053062;28;20688;-79
2023/08/22 03:51:40;;;;;;;3.13;1.43;;;;;;;17.87;100.00;101803.50;5051596;28;20434;-80
2023/08/22 03:54:05;;;;;;;3.70;1.50;;;;;;;17.24;100.00;101716.81;5054704;28;20440;-80
2023/08/22 03:56:31;;;;;;;5.63;2.13;;;;;;;17.57;100.00;101781.66;5062251;28;20172;-79
2023/08/22 03:58:57;;;;;;;3.40;2.00;;;;;;;17.36;100.00;101725.91;5055945;28;20191;-80
2023/08/22 04:01:23;;;;;;;3.03;1.67;;;;;;;17.09;100.00;101684.63;5050565;28;20232;-80
2023/08/22 04:03:48;;;;;;;3.80;1.77;;;;;;;17.81;100.00;101780.81;5053605;28;20442;-80
2023/08/22 04:06:14;;;;;;;5.57;1.67;;;;;;;17.83;100.00;101799.59;5051751;28;20604;-79
2023/08/22 04:08:39;;;;;;;2.80;1.60;;;;;;;17.82;100.00;101790.63;5053561;28;20199;-80
2023/08/22 04:11:05;;;;;;;3.03;1.30;;;;;;;17.21;100.00;101684.75;5052777;28;20198;-80
2023/08/22 04:13:30;;;;;;;2.63;1.67;;;;;;;17.52;100.00;101748.91;5051824;28;20190;-79
2023/08/22 04:15:55;;;;;;;6.13;1.63;;;;;;;17.65;100.00;101786.78;5052265;28;20191;-79
2023/08/22 04:18:21;;;;;;;3.30;1.20;;;;;;;17.15;100.00;101732.53;5049772;28;20816;-80
2023/08/22 04:20:46;;;;;;;3.40;1.40;;;;;;;17.35;100.00;101776.59;5051927;28;20214;-80
2023/08/22 04:23:12;;;;;;;4.33;1.20;;;;;;;17.47;100.00;101797.56;5050820;28;20187;-80
2023/08/22 04:25:37;;;;;;;4.40;1.67;;;;;;;16.88;100.00;101708.34;5050945;28;20179;-79
2023/08/22 04:28:04;;;;;;;3.87;1.30;;;;;;;16.94;100.00;101680.38;5054487;28;20207;-80
2023/08/22 04:30:29;;;;;;;4.70;1.80;;;;;;;17.07;100.00;101708.44;5050525;28;20191;-80
2023/08/22 04:32:56;;;;;;;3.60;1.50;;;;;;;17.33;100.00;101778.72;5052515;28;20777;-79
2023/08/22 04:35:21;;;;;;;4.27;1.50;;;;;;;17.35;100.00;101762.22;5055065;28;20624;-79
2023/08/22 04:37:47;;;;;;;3.73;2.10;;;;;;;16.88;100.00;101713.78;5049576;28;20453;-79
2023/08/22 04:40:13;;;;;;;4.40;2.30;;;;;;;17.31;100.00;101771.84;5050344;28;20219;-78
2023/08/22 04:42:38;;;;;;;3.70;2.00;;;;;;;17.05;100.00;101735.75;5048876;28;20180;-79
2023/08/22 04:45:04;;;;;;;3.70;2.23;;;;;;;17.35;100.00;101773.88;5053917;28;20175;-79
2023/08/22 04:47:29;;;;;;;5.53;2.43;;;;;;;17.52;100.00;101781.47;5054090;28;20180;-78
2023/08/22 04:49:55;;;;;;;4.47;2.30;;;;;;;16.83;100.00;101713.59;5051690;28;21195;-79
2023/08/22 04:52:20;;;;;;;3.97;2.60;;;;;;;17.12;100.00;101749.25;5059104;28;20720;-78
2023/08/22 04:54:45;;;;;;;5.90;2.17;;;;;;;16.24;100.00;101612.72;5053120;28;20261;-79
2023/08/22 04:57:11;;;;;;;4.30;2.90;;;;;;;17.26;100.00;101790.66;5048993;28;20176;-78
2023/08/22 04:59:36;;;;;;;4.73;2.20;;;;;;;17.21;100.00;101764.19;5048284;28;20195;-78
2023/08/22 05:02:02;;;;;;;4.60;2.50;;;;;;;17.43;100.00;101801.78;5051036;28;20172;-78
2023/08/22 05:04:28;;;;;;;5.73;2.80;;;;;;;16.50;100.00;101648.78;5050906;28;20833;-77
2023/08/22 05:06:53;;;;;;;4.07;2.63;;;;;;;16.55;100.00;101696.88;5052724;28;20190;-78
2023/08/22 05:09:19;;;;;;;4.40;2.50;;;;;;;16.51;100.00;101715.44;5053145;28;20218;-78
2023/08/22 05:11:44;;;;;;;4.70;2.63;;;;;;;17.23;100.00;101778.38;5049627;28;20193;-78
2023/08/22 05:14:11;;;;;;;4.77;2.50;;;;;;;17.04;100.00;101742.22;5050652;28;20776;-79
2023/08/22 05:16:38;;;;;;;4.40;2.67;;;;;;;16.84;100.00;101733.41;5050696;28;20172;-78
2023/08/22 05:19:03;;;;;;;4.50;2.90;;;;;;;17.29;100.00;101768.50;5049732;28;20489;-79
2023/08/22 05:21:29;;;;;;;5.13;3.70;;;;;;;17.21;100.00;101794.00;5048618;28;20925;-79
2023/08/22 05:23:54;;;;;;;7.57;4.03;;;;;;;17.27;100.00;101766.03;5052910;28;20190;-79
2023/08/22 05:26:20;;;;;;;4.63;3.30;;;;;;;16.75;100.00;101654.25;5050143;28;20183;-79
2023/08/22 05:28:45;;;;;;;5.63;3.50;;;;;;;16.96;100.00;101682.88;5052467;28;20218;-79
2023/08/22 05:31:24;;;;;;;6.03;4.07;;;;;;;17.74;100.00;101788.16;5049273;28;20187;-79
2023/08/22 05:33:52;;;;;;;6.20;4.20;;;;;;;17.77;100.00;101801.28;5051786;28;20244;-79
2023/08/22 05:36:17;;;;;;;5.60;3.50;;;;;;;17.98;100.00;101766.66;5054208;28;20464;-78
2023/08/22 05:38:43;;;;;;;4.60;3.10;;;;;;;18.00;100.00;101808.81;5050780;28;20487;-79
2023/08/22 05:41:09;;;;;;;7.73;3.77;;;;;;;16.92;100.00;101639.13;5051483;28;20250;-79
2023/08/22 05:43:35;;;;;;;8.30;3.93;;;;;;;17.96;100.00;101801.31;5050524;28;20181;-79
2023/08/22 05:46:01;;;;;;;7.03;3.60;;;;;;;18.09;100.00;101789.50;5059978;28;20171;-78
2023/08/22 05:48:27;;;;;;;6.70;3.60;;;;;;;18.22;100.00;101803.75;5051696;28;20469;-78
2023/08/22 05:50:53;;;;;;;6.70;3.27;;;;;;;18.44;100.00;101814.16;5056963;28;20970;-79
2023/08/22 05:53:18;;;;;;;6.77;3.40;;;;;;;17.97;100.00;101754.16;5051744;28;20426;-79
2023/08/22 05:55:43;;;;;;;4.43;3.10;;;;;;;18.48;100.00;101815.38;5049164;28;21064;-79
2023/08/22 05:58:09;;;;;;;5.47;3.30;;;;;;;18.45;100.00;101832.94;5050001;28;20183;-78
2023/08/22 06:00:35;;;;;;;5.50;3.30;;;;;;;18.55;100.00;101827.00;5050859;28;20207;-78
2023/08/22 06:03:00;;;;;;;5.23;3.10;;;;;;;18.69;100.00;101835.81;5055903;28;20266;-79
2023/08/22 06:05:26;;;;;;;5.50;3.10;;;;;;;18.61;100.00;101804.34;5052302;28;20465;-78
2023/08/22 06:07:53;;;;;;;9.27;3.77;;;;;;;18.58;100.00;101831.16;5055676;28;20179;-79
2023/08/22 06:10:19;;;;;;;6.30;4.00;;;;;;;18.09;100.00;101770.50;5049334;28;20207;-79
2023/08/22 06:12:44;;;;;;;4.33;3.00;;;;;;;18.69;100.00;101868.44;5056034;28;21090;-78
2023/08/22 06:15:09;;;;;;;8.23;3.40;;;;;;;18.56;100.00;101866.69;5049096;28;20180;-79
2023/08/22 06:17:35;;;;;;;8.37;4.50;;;;;;;18.63;100.00;101870.16;5050143;28;20176;-78
2023/08/22 06:20:00;;;;;;;5.07;2.63;;;;;;;18.70;100.00;101870.91;5052108;28;20309;-78
2023/08/22 06:22:26;;;;;;;7.27;2.70;;;;;;;18.26;100.00;101785.97;5051048;28;20596;-79
2023/08/22 06:24:51;;;;;;;6.97;3.37;;;;;;;18.23;100.00;101761.16;5051138;28;20464;-78
2023/08/22 06:27:17;;;;;;;6.43;2.87;;;;;;;18.93;100.00;101874.84;5047687;28;20282;-79
2023/08/22 06:29:42;;;;;;;6.83;3.10;;;;;;;18.87;100.00;101887.44;5049797;28;20253;-78
2023/08/22 06:32:08;;;;;;;7.03;3.20;;;;;;;18.86;100.00;101902.13;5050489;28;20458;-79
2023/08/22 06:34:33;;;;;;;5.13;2.57;;;;;;;18.66;100.00;101850.69;5058202;28;20190;-78
2023/08/22 06:36:59;;;;;;;7.03;3.33;;;;;;;18.28;100.00;101778.44;5049017;28;20180;-79
2023/08/22 06:39:24;;;;;;;7.43;3.30;;;;;;;18.95;100.00;101892.59;5050899;28;20199;-77
2023/08/22 06:41:49;;;;;;;9.27;3.63;;;;;;;18.64;100.00;101828.34;5048372;28;20176;-78
2023/08/22 06:44:15;;;;;;;10.83;3.00;;;;;;;18.20;100.00;101754.28;5064294;28;20184;-78
2023/08/22 06:46:41;;;;;;;5.93;2.73;;;;;;;18.85;100.00;101872.44;5049942;28;20181;-77
2023/08/22 06:49:06;;;;;;;9.33;3.50;;;;;;;18.86;100.00;101877.66;5054324;28;20304;-77
2023/08/22 06:51:33;;;;;;;5.63;2.90;;;;;;;18.81;100.00;101825.84;5057456;28;20472;-79
2023/08/22 06:53:59;;;;;;;9.03;3.87;;;;;;;18.23;100.00;101761.97;5053591;28;20184;-78
2023/08/22 06:56:26;;;;;;;6.40;3.57;;;;;;;18.40;100.00;101762.19;5056163;28;20483;-79
2023/08/22 06:58:51;;;;;;;5.97;3.70;;;;;;;18.86;100.00;101850.47;5064233;28;20175;-79
2023/08/22 07:01:18;;;;;;;10.63;4.00;;;;;;;18.97;100.00;101840.69;5052404;28;20511;-79
2023/08/22 07:03:43;;;;;;;9.53;4.70;;;;;;;18.40;100.00;101770.34;5054548;28;20898;-78
2023/08/22 07:06:09;;;;;;;6.90;3.97;;;;;;;19.12;100.00;101845.69;5052156;28;20505;-78
2023/08/22 07:08:34;;;;;;;10.80;5.70;;;;;;;18.89;100.00;101824.69;5052916;28;20203;-78
2023/08/22 07:11:03;;;;;;;8.73;4.50;;;;;;;19.22;100.00;101837.00;5052907;28;20310;-79
2023/08/22 07:13:30;;;;;;;8.70;4.77;;;;;;;18.94;100.00;101789.50;5052126;28;20183;-79
2023/08/22 07:15:55;;;;;;;9.83;6.03;;;;;;;18.36;100.00;101744.69;5055362;28;20960;-78
2023/08/22 07:18:21;;;;;;;8.67;5.03;;;;;;;18.67;100.00;101770.81;5063056;28;20426;-79
2023/08/22 07:20:46;;;;;;;8.30;5.13;;;;;;;18.51;100.00;101731.53;5050387;28;20269;-79
2023/08/22 07:23:12;;;;;;;8.77;4.70;;;;;;;19.15;100.00;101847.94;5051004;28;20184;-78
2023/08/22 07:25:38;;;;;;;9.63;4.83;;;;;;;18.47;100.00;101743.09;5053510;28;20175;-79
2023/08/22 07:28:04;;;;;;;8.37;5.00;;;;;;;18.85;100.00;101785.44;5053868;28;20436;-79
2023/08/22 07:30:32;;;;;;;8.57;5.27;;;;;;;18.71;100.00;101754.88;5053118;28;20275;-79
2023/08/22 07:32:58;;;;;;;6.73;4.43;;;;;;;18.71;100.00;101749.44;5062209;28;20521;-79
2023/08/22 07:35:24;;;;;;;10.37;5.10;;;;;;;18.55;100.00;101745.50;5056289;28;20508;-79
2023/08/22 07:37:49;;;;;;;9.67;5.23;;;;;;;19.18;100.00;101848.34;5059165;28;20898;-79
2023/08/22 07:40:16;;;;;;;6.53;4.20;;;;;;;19.05;100.00;101820.50;5050296;28;20442;-79
2023/08/22 07:42:42;;;;;;;8.70;4.80;;;;;;;19.14;100.00;101827.25;5054358;28;20176;-79
2023/08/22 07:45:08;;;;;;;9.50;4.47;;;;;;;18.92;100.00;101795.19;5053311;28;20514;-78
2023/08/22 07:47:33;;;;;;;6.77;4.40;;;;;;;18.85;100.00;101752.81;5052916;28;20547;-78
2023/08/22 07:49:59;;;;;;;6.50;4.47;;;;;;;18.87;100.00;101784.16;5052471;28;20472;-79
2023/08/22 07:52:24;;;;;;;8.00;4.40;;;;;;;19.41;100.00;101835.84;5054101;28;20618;-79
2023/08/22 07:54:50;;;;;;;7.47;3.73;;;;;;;19.14;100.00;101773.69;5053257;28;20238;-79
2023/08/22 07:57:15;;;;;;;15.17;6.07;;;;;;;19.79;100.00;101875.47;5055236;28;20544;-78
2023/08/22 07:59:40;;;;;;;13.53;5.00;;;;;;;19.71;100.00;101892.97;5053931;28;20190;-78
2023/08/22 08:02:06;;;;;;;7.80;5.33;;;;;;;19.90;100.00;101896.41;5053340;28;20183;-78
2023/08/22 08:04:31;;;;;;;9.13;4.30;;;;;;;19.99;100.00;101911.38;5051632;28;20186;-78
2023/08/22 08:06:57;;;;;;;10.07;4.47;;;;;;;19.42;100.00;101837.53;5052664;28;20819;-79
2023/08/22 08:09:22;;;;;;;8.60;4.90;;;;;;;19.99;100.00;101935.00;5056033;28;20217;-78
2023/08/22 08:11:47;;;;;;;6.83;4.43;;;;;;;19.51;100.00;101866.03;5053460;28;20175;-78
2023/08/22 08:14:13;;;;;;;7.10;4.10;;;;;;;19.15;100.00;101820.75;5050973;28;20188;-78
2023/08/22 08:16:38;;;;;;;8.23;4.80;;;;;;;19.79;100.00;101916.31;5053330;28;22366;-78
2023/08/22 08:19:04;;;;;;;8.43;4.47;;;;;;;19.73;100.00;101895.44;5055928;28;20210;-78
2023/08/22 08:21:30;;;;;;;8.50;4.47;;;;;;;19.91;100.00;101897.28;5051678;28;20234;-78
2023/08/22 08:23:55;;;;;;;9.13;5.20;;;;;;;19.05;100.00;101774.28;5049718;28;20683;-79
2023/08/22 08:26:21;;;;;;;9.90;4.40;;;;;;;19.45;100.00;101825.34;5051579;28;20179;-79
2023/08/22 08:28:46;;;;;;;10.23;4.30;;;;;;;20.05;100.00;101915.88;5053476;28;20592;-79
2023/08/22 08:31:12;;;;;;;5.13;3.00;;;;;;;20.33;100.00;101927.94;5050601;28;20581;-78
2023/08/22 08:33:37;;;;;;;6.80;3.60;;;;;;;20.35;100.00;101927.72;5051464;28;20290;-78
2023/08/22 08:36:04;;;;;;;10.13;4.87;;;;;;;20.24;100.00;101951.16;5051193;28;20566;-79
2023/08/22 08:38:30;;;;;;;6.90;4.30;;;;;;;20.44;100.00;102018.94;5055092;28;20180;-79
2023/08/22 08:40:59;;;;;;;4.37;2.97;;;;;;;20.47;100.00;102034.81;5051568;28;21028;-79
2023/08/22 08:43:25;;;;;;;5.80;3.07;;;;;;;19.91;100.00;101996.13;5053498;28;20863;-78
2023/08/22 08:45:51;;;;;;;5.10;2.60;;;;;;;20.11;100.00;102079.41;5063001;28;21437;-80
2023/08/22 08:48:21;;;;;;;4.90;3.10;;;;;;;20.61;100.00;102171.75;5050555;28;20490;-79
2023/08/22 08:50:49;;;;;;;8.37;4.00;;;;;;;20.56;100.00;102158.78;5050551;28;20453;-78
2023/08/22 08:53:14;;;;;;;3.73;2.30;;;;;;;20.59;100.00;102187.47;5051304;28;20432;-79
2023/08/22 08:55:40;;;;;;;5.53;3.17;;;;;;;19.95;100.00;102110.84;5049230;28;20437;-79
2023/08/22 08:58:07;;;;;;;7.27;3.10;;;;;;;20.09;100.00;102140.38;5059980;28;20647;-78
2023/08/22 09:00:33;;;;;;;5.60;2.77;;;;;;;20.35;100.00;102130.16;5061133;28;20536;-78
2023/08/22 09:02:59;;;;;;;7.33;2.90;;;;;;;20.00;100.00;102053.78;5051128;28;20922;-77
2023/08/22 09:05:25;;;;;;;5.30;2.67;;;;;;;19.96;100.00;102033.53;5054490;28;20891;-79
2023/08/22 09:07:50;;;;;;;7.33;3.27;;;;;;;19.95;100.00;102059.94;5053236;28;20180;-78
2023/08/22 09:10:33;;;;;;;4.80;2.37;;;;;;;20.88;100.00;102153.03;5048062;28;21091;-78
2023/08/22 09:13:03;;;;;;;5.13;2.47;;;;;;;20.87;100.00;102181.38;5059360;28;20218;-78
2023/08/22 09:15:29;;;;;;;6.10;3.07;;;;;;;20.56;100.00;102145.16;5058129;28;20438;-78
2023/08/22 09:17:55;;;;;;;6.50;3.00;;;;;;;20.48;100.00;102137.28;5053152;28;20445;-78
2023/08/22 09:20:20;;;;;;;8.10;3.60;;;;;;;20.24;100.00;102134.50;5053779;28;21027;-77
2023/08/22 09:22:46;;;;;;;6.03;2.83;;;;;;;20.95;100.00;102197.41;5049428;28;20275;-78
2023/08/22 09:25:11;;;;;;;7.33;3.20;;;;;;;20.13;100.00;102102.59;5053563;28;20186;-77
2023/08/22 09:27:38;;;;;;;6.50;2.70;;;;;;;20.28;100.00;102059.44;5052282;28;20654;-78
2023/08/22 09:30:04;;;;;;;4.87;3.00;;;;;;;21.08;100.00;102180.81;5053803;28;20253;-78
2023/08/22 09:32:30;;;;;;;5.13;3.00;;;;;;;21.07;100.00;102202.88;5058408;28;20858;-78
2023/08/22 09:34:58;;;;;;;4.83;2.50;;;;;;;20.81;100.00;102231.41;5052424;28;20517;-79
2023/08/22 09:37:31;;;;;;;5.30;3.00;;;;;;;20.92;100.00;102290.59;5051842;28;20433;-79
2023/08/22 09:39:56;;;;;;;5.17;2.60;;;;;;;21.09;100.00;102348.91;5050443;28;20563;-77
2023/08/22 09:42:30;;;;;;;5.23;3.00;;;;;;;20.79;100.00;102258.91;5053638;28;20834;-78
2023/08/22 09:44:56;;;;;;;3.63;2.30;;;;;;;20.94;100.00;102346.59;5050783;28;20506;-77
2023/08/22 09:47:29;;;;;;;6.47;3.00;;;;;;;21.29;100.00;102414.09;5049724;28;20949;-78
2023/08/22 09:49:58;;;;;;;6.10;2.90;;;;;;;20.86;100.00;102357.81;5054066;28;20481;-78
2023/08/22 09:52:25;;;;;;;3.90;2.43;;;;;;;21.48;100.00;102414.03;5049854;28;20483;-78
2023/08/22 09:54:51;;;;;;;4.13;2.40;;;;;;;21.55;100.00;102410.16;5053693;28;20461;-78
2023/08/22 09:57:18;;;;;;;6.67;3.10;;;;;;;21.38;100.00;102373.69;5052338;28;20454;-77
2023/08/22 09:59:45;;;;;;;4.60;2.70;;;;;;;21.75;100.00;102430.81;5050276;28;20445;-78
2023/08/22 10:02:11;;;;;;;4.00;2.70;;;;;;;21.46;100.00;102365.13;5052415;28;20579;-78
2023/08/22 10:04:46;;;;;;;5.30;3.10;;;;;;;21.33;100.00;102338.84;5050998;28;20532;-78
2023/08/22 10:07:12;;;;;;;4.47;2.53;;;;;;;21.51;100.00;102395.28;5048368;28;20187;-77
2023/08/22 10:09:42;;;;;;;3.20;2.27;;;;;;;21.30;100.00;102415.75;5053722;28;20474;-77
2023/08/22 10:12:11;;;;;;;4.57;2.33;;;;;;;22.15;100.00;102487.53;5054105;28;20520;-77
2023/08/22 10:14:46;;;;;;;4.07;2.27;;;;;;;21.86;100.00;102507.31;5055919;28;20438;-77
2023/08/22 10:17:15;;;;;;;4.27;2.10;;;;;;;21.93;100.00;102481.78;5049321;28;20432;-77
2023/08/22 10:19:42;;;;;;;4.50;2.03;;;;;;;21.43;100.00;102380.06;5050111;28;20502;-78
2023/08/22 10:22:10;;;;;;;3.53;2.33;;;;;;;22.05;100.00;102475.31;5050748;28;20519;-78
2023/08/22 10:24:36;;;;;;;8.90;3.03;;;;;;;22.12;100.00;102447.84;5055734;28;20515;-77
2023/08/22 10:27:11;;;;;;;5.20;2.60;;;;;;;22.29;100.00;102465.22;5055310;28;20960;-78
2023/08/22 10:29:40;;;;;;;3.90;2.23;;;;;;;22.23;100.00;102466.19;5055109;28;20578;-79
2023/08/22 10:32:05;;;;;;;4.03;2.27;;;;;;;22.42;100.00;102521.59;5053141;28;20904;-78
2023/08/22 10:34:34;;;;;;;8.57;2.77;;;;;;;22.66;100.00;102516.94;5053061;28;20434;-77
2023/08/22 10:37:03;;;;;;;6.87;2.47;;;;;;;22.49;100.00;102551.53;5054580;28;20180;-79
2023/08/22 10:39:38;;;;;;;5.23;2.73;;;;;;;22.71;100.00;102606.47;5055313;28;20456;-77
2023/08/22 10:42:05;;;;;;;3.93;2.23;;;;;;;22.24;100.00;102467.84;5052323;28;20445;-76
2023/08/22 10:44:31;;;;;;;6.23;3.07;;;;;;;21.96;100.00;102191.75;5055929;28;20492;-77
2023/08/22 10:47:03;;;;;;;4.73;2.30;;;;;;;23.13;100.00;102317.06;5055969;28;20426;-76
2023/08/22 10:49:30;;;;;;;4.80;2.17;;;;;;;22.91;100.00;102280.53;5051434;28;20215;-77
2023/08/22 10:52:06;;;;;;;4.20;2.30;;;;;;;22.22;100.00;102171.28;5050879;28;20465;-77
2023/08/22 10:54:52;;;;;;;3.73;2.13;;;;;;;22.79;100.00;102237.63;5060520;28;20429;-76
2023/08/22 10:57:18;;;;;;;3.87;2.03;;;;;;;22.27;100.00;102172.19;5043903;28;20959;-77
2023/08/22 10:59:59;;;;;;;3.70;1.87;;;;;;;22.83;100.00;102248.94;5049345;28;20446;-77
2023/08/22 11:02:43;;;;;;;3.00;1.87;;;;;;;22.14;100.00;102131.47;5062192;28;20776;-78
2023/08/22 11:05:14;;;;;;;4.53;2.57;;;;;;;22.77;100.00;102185.09;5057858;28;20429;-77
2023/08/22 11:07:42;;;;;;;3.43;2.00;;;;;;;23.02;100.00;102203.03;5052417;28;20689;-77
2023/08/22 11:10:11;;;;;;;5.10;2.17;;;;;;;23.00;100.00;102181.41;5051244;28;21192;-77
2023/08/22 11:12:37;;;;;;;4.90;1.77;;;;;;;22.90;100.00;102174.91;5050051;28;20433;-77
2023/08/22 11:15:03;;;;;;;3.47;1.53;;;;;;;22.59;100.00;102070.47;5056990;28;20437;-76